sensor_id;sensor_type;location;lat;lon;timestamp;P1;durP1;ratioP1;P2;durP2;ratioP2
9188;SDS011;34313;50.780;6.084;2023-12-22T00:01:45;11.40;;;2.30;;
9188;SDS011;34313;50.780;6.084;2023-12-22T00:04:11;12.73;;;2.60;;
9188;SDS011;34313;50.780;6.084;2023-12-22T00:06:36;14.73;;;2.80;;
9188;SDS011;34313;50.780;6.084;2023-12-22T00:09:01;17.37;;;2.97;;
9188;SDS011;34313;50.780;6.084;2023-12-22T00:11:27;14.17;;;2.93;;
9188;SDS011;34313;50.780;6.084;2023-12-22T00:13:52;10.17;;;2.30;;
9188;SDS011;34313;50.780;6.084;2023-12-22T00:16:17;15.90;;;3.30;;
9188;SDS011;34313;50.780;6.084;2023-12-22T00:18:43;17.27;;;3.07;;
9188;SDS011;34313;50.780;6.084;2023-12-22T00:21:11;12.97;;;2.60;;
9188;SDS011;34313;50.780;6.084;2023-12-22T00:23:36;13.17;;;2.90;;
9188;SDS011;34313;50.780;6.084;2023-12-22T00:26:02;12.20;;;2.33;;
9188;SDS011;34313;50.780;6.084;2023-12-22T00:28:28;13.03;;;3.13;;
9188;SDS011;34313;50.780;6.084;2023-12-22T00:30:54;9.90;;;2.07;;
9188;SDS011;34313;50.780;6.084;2023-12-22T00:33:20;10.07;;;2.10;;
9188;SDS011;34313;50.780;6.084;2023-12-22T00:35:45;14.03;;;2.10;;
9188;SDS011;34313;50.780;6.084;2023-12-22T00:38:10;9.23;;;2.13;;
9188;SDS011;34313;50.780;6.084;2023-12-22T00:40:35;10.50;;;2.30;;
9188;SDS011;34313;50.780;6.084;2023-12-22T00:43:01;13.30;;;2.30;;
9188;SDS011;34313;50.780;6.084;2023-12-22T00:45:26;11.00;;;2.00;;
9188;SDS011;34313;50.780;6.084;2023-12-22T00:47:51;16.67;;;2.53;;
9188;SDS011;34313;50.780;6.084;2023-12-22T00:50:17;8.30;;;2.00;;
9188;SDS011;34313;50.780;6.084;2023-12-22T00:52:42;12.60;;;2.50;;
9188;SDS011;34313;50.780;6.084;2023-12-22T00:55:08;16.40;;;2.43;;
9188;SDS011;34313;50.780;6.084;2023-12-22T00:57:34;11.40;;;2.23;;
9188;SDS011;34313;50.780;6.084;2023-12-22T00:59:59;10.83;;;2.20;;
9188;SDS011;34313;50.780;6.084;2023-12-22T01:02:24;9.60;;;2.17;;
9188;SDS011;34313;50.780;6.084;2023-12-22T01:04:50;9.30;;;1.93;;
9188;SDS011;34313;50.780;6.084;2023-12-22T01:07:15;14.77;;;2.63;;
9188;SDS011;34313;50.780;6.084;2023-12-22T01:09:42;9.93;;;2.30;;
9188;SDS011;34313;50.780;6.084;2023-12-22T01:12:07;11.40;;;2.03;;
9188;SDS011;34313;50.780;6.084;2023-12-22T01:14:34;14.17;;;2.70;;
9188;SDS011;34313;50.780;6.084;2023-12-22T01:16:59;8.60;;;2.10;;
9188;SDS011;34313;50.780;6.084;2023-12-22T01:19:25;12.27;;;2.10;;
9188;SDS011;34313;50.780;6.084;2023-12-22T01:21:51;11.33;;;1.87;;
9188;SDS011;34313;50.780;6.084;2023-12-22T01:24:16;12.90;;;2.47;;
9188;SDS011;34313;50.780;6.084;2023-12-22T01:26:42;10.00;;;2.20;;
9188;SDS011;34313;50.780;6.084;2023-12-22T01:29:07;12.57;;;2.93;;
9188;SDS011;34313;50.780;6.084;2023-12-22T01:31:32;16.70;;;2.80;;
9188;SDS011;34313;50.780;6.084;2023-12-22T01:33:58;9.13;;;2.10;;
9188;SDS011;34313;50.780;6.084;2023-12-22T01:36:23;8.80;;;1.57;;
9188;SDS011;34313;50.780;6.084;2023-12-22T01:38:48;8.00;;;2.03;;
9188;SDS011;34313;50.780;6.084;2023-12-22T01:41:14;9.87;;;1.57;;
9188;SDS011;34313;50.780;6.084;2023-12-22T01:43:39;7.30;;;1.57;;
9188;SDS011;34313;50.780;6.084;2023-12-22T01:46:04;8.17;;;1.90;;
9188;SDS011;34313;50.780;6.084;2023-12-22T01:48:32;8.13;;;1.73;;
9188;SDS011;34313;50.780;6.084;2023-12-22T01:50:58;5.60;;;1.40;;
9188;SDS011;34313;50.780;6.084;2023-12-22T01:53:26;12.30;;;2.20;;
9188;SDS011;34313;50.780;6.084;2023-12-22T01:55:51;7.10;;;2.10;;
9188;SDS011;34313;50.780;6.084;2023-12-22T01:58:19;9.03;;;1.80;;
9188;SDS011;34313;50.780;6.084;2023-12-22T02:00:45;8.27;;;1.80;;
9188;SDS011;34313;50.780;6.084;2023-12-22T02:03:11;4.33;;;1.33;;
9188;SDS011;34313;50.780;6.084;2023-12-22T02:05:37;10.70;;;1.90;;
9188;SDS011;34313;50.780;6.084;2023-12-22T02:08:03;5.67;;;1.60;;
9188;SDS011;34313;50.780;6.084;2023-12-22T02:10:28;3.10;;;1.73;;
9188;SDS011;34313;50.780;6.084;2023-12-22T02:12:54;8.93;;;2.77;;
9188;SDS011;34313;50.780;6.084;2023-12-22T02:15:19;13.43;;;2.00;;
9188;SDS011;34313;50.780;6.084;2023-12-22T02:20:15;13.83;;;1.57;;
9188;SDS011;34313;50.780;6.084;2023-12-22T02:22:41;9.33;;;1.87;;
9188;SDS011;34313;50.780;6.084;2023-12-22T02:25:06;10.23;;;1.70;;
9188;SDS011;34313;50.780;6.084;2023-12-22T02:27:45;10.33;;;1.97;;
9188;SDS011;34313;50.780;6.084;2023-12-22T02:30:14;9.40;;;2.07;;
9188;SDS011;34313;50.780;6.084;2023-12-22T02:32:49;10.73;;;1.90;;
9188;SDS011;34313;50.780;6.084;2023-12-22T02:35:19;10.37;;;2.47;;
9188;SDS011;34313;50.780;6.084;2023-12-22T02:37:46;13.53;;;2.37;;
9188;SDS011;34313;50.780;6.084;2023-12-22T02:40:13;11.20;;;2.07;;
9188;SDS011;34313;50.780;6.084;2023-12-22T02:42:40;11.17;;;2.27;;
9188;SDS011;34313;50.780;6.084;2023-12-22T02:45:06;11.87;;;2.50;;
9188;SDS011;34313;50.780;6.084;2023-12-22T02:47:39;14.60;;;2.33;;
9188;SDS011;34313;50.780;6.084;2023-12-22T02:50:04;15.30;;;2.90;;
9188;SDS011;34313;50.780;6.084;2023-12-22T02:52:30;9.80;;;2.80;;
9188;SDS011;34313;50.780;6.084;2023-12-22T02:54:57;16.00;;;2.73;;
9188;SDS011;34313;50.780;6.084;2023-12-22T02:57:23;13.93;;;3.07;;
9188;SDS011;34313;50.780;6.084;2023-12-22T02:59:48;19.00;;;2.70;;
9188;SDS011;34313;50.780;6.084;2023-12-22T03:02:13;13.63;;;2.20;;
9188;SDS011;34313;50.780;6.084;2023-12-22T03:04:39;7.67;;;1.90;;
9188;SDS011;34313;50.780;6.084;2023-12-22T03:07:05;12.20;;;1.80;;
9188;SDS011;34313;50.780;6.084;2023-12-22T03:09:30;3.70;;;1.43;;
9188;SDS011;34313;50.780;6.084;2023-12-22T03:11:57;9.60;;;1.83;;
9188;SDS011;34313;50.780;6.084;2023-12-22T03:14:26;7.23;;;1.57;;
9188;SDS011;34313;50.780;6.084;2023-12-22T03:16:53;7.43;;;1.87;;
9188;SDS011;34313;50.780;6.084;2023-12-22T03:19:19;11.33;;;1.83;;
9188;SDS011;34313;50.780;6.084;2023-12-22T03:21:44;10.40;;;1.57;;
9188;SDS011;34313;50.780;6.084;2023-12-22T03:24:09;10.50;;;1.30;;
9188;SDS011;34313;50.780;6.084;2023-12-22T03:26:35;9.50;;;2.10;;
9188;SDS011;34313;50.780;6.084;2023-12-22T03:29:00;13.63;;;1.93;;
9188;SDS011;34313;50.780;6.084;2023-12-22T03:31:25;12.30;;;1.73;;
9188;SDS011;34313;50.780;6.084;2023-12-22T03:33:50;19.43;;;2.77;;
9188;SDS011;34313;50.780;6.084;2023-12-22T03:36:16;11.63;;;2.30;;
9188;SDS011;34313;50.780;6.084;2023-12-22T03:38:41;11.23;;;2.20;;
9188;SDS011;34313;50.780;6.084;2023-12-22T03:41:07;17.43;;;2.50;;
9188;SDS011;34313;50.780;6.084;2023-12-22T03:43:32;9.30;;;2.50;;
9188;SDS011;34313;50.780;6.084;2023-12-22T03:45:58;20.53;;;3.37;;
9188;SDS011;34313;50.780;6.084;2023-12-22T03:48:23;14.80;;;2.90;;
9188;SDS011;34313;50.780;6.084;2023-12-22T03:50:48;18.87;;;2.80;;
9188;SDS011;34313;50.780;6.084;2023-12-22T03:53:13;17.53;;;2.90;;
9188;SDS011;34313;50.780;6.084;2023-12-22T03:55:39;29.40;;;4.03;;
9188;SDS011;34313;50.780;6.084;2023-12-22T03:58:04;14.47;;;3.20;;
9188;SDS011;34313;50.780;6.084;2023-12-22T04:00:32;23.37;;;3.13;;
9188;SDS011;34313;50.780;6.084;2023-12-22T04:02:57;18.00;;;2.67;;
9188;SDS011;34313;50.780;6.084;2023-12-22T04:05:23;18.27;;;3.60;;
9188;SDS011;34313;50.780;6.084;2023-12-22T04:07:48;17.63;;;2.57;;
9188;SDS011;34313;50.780;6.084;2023-12-22T04:10:15;17.40;;;2.87;;
9188;SDS011;34313;50.780;6.084;2023-12-22T04:12:42;13.47;;;2.93;;
9188;SDS011;34313;50.780;6.084;2023-12-22T04:15:08;18.60;;;3.00;;
9188;SDS011;34313;50.780;6.084;2023-12-22T04:17:33;13.53;;;2.50;;
9188;SDS011;34313;50.780;6.084;2023-12-22T04:19:58;21.20;;;3.20;;
9188;SDS011;34313;50.780;6.084;2023-12-22T04:22:24;17.30;;;3.57;;
9188;SDS011;34313;50.780;6.084;2023-12-22T04:24:49;20.17;;;2.77;;
9188;SDS011;34313;50.780;6.084;2023-12-22T04:27:14;13.27;;;2.83;;
9188;SDS011;34313;50.780;6.084;2023-12-22T04:29:40;11.37;;;3.00;;
9188;SDS011;34313;50.780;6.084;2023-12-22T04:32:05;17.30;;;2.80;;
9188;SDS011;34313;50.780;6.084;2023-12-22T04:34:30;13.53;;;3.07;;
9188;SDS011;34313;50.780;6.084;2023-12-22T04:36:55;10.37;;;2.50;;
9188;SDS011;34313;50.780;6.084;2023-12-22T04:39:21;15.17;;;3.00;;
9188;SDS011;34313;50.780;6.084;2023-12-22T04:41:46;11.97;;;2.37;;
9188;SDS011;34313;50.780;6.084;2023-12-22T04:44:11;13.07;;;2.70;;
9188;SDS011;34313;50.780;6.084;2023-12-22T04:46:37;16.23;;;3.10;;
9188;SDS011;34313;50.780;6.084;2023-12-22T04:49:02;15.40;;;2.63;;
9188;SDS011;34313;50.780;6.084;2023-12-22T04:51:27;15.27;;;2.60;;
9188;SDS011;34313;50.780;6.084;2023-12-22T04:53:53;11.43;;;2.73;;
9188;SDS011;34313;50.780;6.084;2023-12-22T04:56:18;13.83;;;2.43;;
9188;SDS011;34313;50.780;6.084;2023-12-22T04:58:43;11.13;;;2.50;;
9188;SDS011;34313;50.780;6.084;2023-12-22T05:01:09;12.50;;;2.40;;
9188;SDS011;34313;50.780;6.084;2023-12-22T05:03:34;7.13;;;2.17;;
9188;SDS011;34313;50.780;6.084;2023-12-22T05:05:59;12.60;;;2.23;;
9188;SDS011;34313;50.780;6.084;2023-12-22T05:08:25;15.90;;;2.20;;
9188;SDS011;34313;50.780;6.084;2023-12-22T05:10:50;8.80;;;1.87;;
9188;SDS011;34313;50.780;6.084;2023-12-22T05:13:16;8.13;;;2.03;;
9188;SDS011;34313;50.780;6.084;2023-12-22T05:15:41;12.57;;;2.60;;
9188;SDS011;34313;50.780;6.084;2023-12-22T05:18:06;8.40;;;1.90;;
9188;SDS011;34313;50.780;6.084;2023-12-22T05:20:32;16.13;;;1.87;;
9188;SDS011;34313;50.780;6.084;2023-12-22T05:22:57;15.70;;;2.93;;
9188;SDS011;34313;50.780;6.084;2023-12-22T05:25:23;15.43;;;2.40;;
9188;SDS011;34313;50.780;6.084;2023-12-22T05:27:49;12.10;;;2.60;;
9188;SDS011;34313;50.780;6.084;2023-12-22T05:30:14;16.50;;;2.87;;
9188;SDS011;34313;50.780;6.084;2023-12-22T05:32:39;12.50;;;2.50;;
9188;SDS011;34313;50.780;6.084;2023-12-22T05:35:05;14.73;;;2.27;;
9188;SDS011;34313;50.780;6.084;2023-12-22T05:37:30;12.67;;;2.80;;
9188;SDS011;34313;50.780;6.084;2023-12-22T05:39:56;17.50;;;2.80;;
9188;SDS011;34313;50.780;6.084;2023-12-22T05:42:21;8.50;;;1.80;;
9188;SDS011;34313;50.780;6.084;2023-12-22T05:44:46;12.90;;;2.10;;
9188;SDS011;34313;50.780;6.084;2023-12-22T05:47:14;13.90;;;2.30;;
9188;SDS011;34313;50.780;6.084;2023-12-22T05:49:40;18.97;;;2.90;;
9188;SDS011;34313;50.780;6.084;2023-12-22T05:52:06;17.87;;;2.80;;
9188;SDS011;34313;50.780;6.084;2023-12-22T05:54:31;16.00;;;3.70;;
9188;SDS011;34313;50.780;6.084;2023-12-22T05:56:56;15.80;;;2.80;;
9188;SDS011;34313;50.780;6.084;2023-12-22T05:59:22;16.53;;;3.10;;
9188;SDS011;34313;50.780;6.084;2023-12-22T06:01:47;17.27;;;2.97;;
9188;SDS011;34313;50.780;6.084;2023-12-22T06:04:12;25.87;;;3.20;;
9188;SDS011;34313;50.780;6.084;2023-12-22T06:06:38;18.60;;;2.80;;
9188;SDS011;34313;50.780;6.084;2023-12-22T06:09:04;17.83;;;3.77;;
9188;SDS011;34313;50.780;6.084;2023-12-22T06:11:29;19.07;;;3.00;;
9188;SDS011;34313;50.780;6.084;2023-12-22T06:13:55;16.73;;;3.00;;
9188;SDS011;34313;50.780;6.084;2023-12-22T06:16:21;19.13;;;3.10;;
9188;SDS011;34313;50.780;6.084;2023-12-22T06:18:47;21.23;;;3.50;;
9188;SDS011;34313;50.780;6.084;2023-12-22T06:21:12;18.80;;;3.40;;
9188;SDS011;34313;50.780;6.084;2023-12-22T06:23:37;16.83;;;2.90;;
9188;SDS011;34313;50.780;6.084;2023-12-22T06:26:09;20.40;;;3.30;;
9188;SDS011;34313;50.780;6.084;2023-12-22T06:28:37;20.60;;;4.07;;
9188;SDS011;34313;50.780;6.084;2023-12-22T06:31:04;19.47;;;3.70;;
9188;SDS011;34313;50.780;6.084;2023-12-22T06:33:30;22.87;;;3.83;;
9188;SDS011;34313;50.780;6.084;2023-12-22T06:35:55;37.87;;;4.63;;
9188;SDS011;34313;50.780;6.084;2023-12-22T06:38:21;25.47;;;3.63;;
9188;SDS011;34313;50.780;6.084;2023-12-22T06:40:46;28.27;;;4.00;;
9188;SDS011;34313;50.780;6.084;2023-12-22T06:43:12;32.53;;;5.17;;
9188;SDS011;34313;50.780;6.084;2023-12-22T06:45:38;23.80;;;5.17;;
9188;SDS011;34313;50.780;6.084;2023-12-22T06:48:05;26.47;;;4.43;;
9188;SDS011;34313;50.780;6.084;2023-12-22T06:50:30;26.77;;;4.40;;
9188;SDS011;34313;50.780;6.084;2023-12-22T06:52:56;20.10;;;4.00;;
9188;SDS011;34313;50.780;6.084;2023-12-22T06:55:22;35.97;;;4.40;;
9188;SDS011;34313;50.780;6.084;2023-12-22T06:57:47;21.73;;;3.93;;
9188;SDS011;34313;50.780;6.084;2023-12-22T07:00:13;28.80;;;4.23;;
9188;SDS011;34313;50.780;6.084;2023-12-22T07:02:39;23.50;;;5.33;;
9188;SDS011;34313;50.780;6.084;2023-12-22T07:07:47;19.57;;;4.50;;
9188;SDS011;34313;50.780;6.084;2023-12-22T07:10:13;27.33;;;4.53;;
9188;SDS011;34313;50.780;6.084;2023-12-22T07:12:38;19.87;;;4.63;;
9188;SDS011;34313;50.780;6.084;2023-12-22T07:15:07;23.20;;;4.00;;
9188;SDS011;34313;50.780;6.084;2023-12-22T07:17:32;24.23;;;4.37;;
9188;SDS011;34313;50.780;6.084;2023-12-22T07:19:58;22.70;;;3.80;;
9188;SDS011;34313;50.780;6.084;2023-12-22T07:22:24;23.67;;;4.30;;
9188;SDS011;34313;50.780;6.084;2023-12-22T07:24:49;20.03;;;3.63;;
9188;SDS011;34313;50.780;6.084;2023-12-22T07:27:16;30.33;;;3.97;;
9188;SDS011;34313;50.780;6.084;2023-12-22T07:29:42;27.53;;;4.33;;
9188;SDS011;34313;50.780;6.084;2023-12-22T07:32:07;21.30;;;4.30;;
9188;SDS011;34313;50.780;6.084;2023-12-22T07:34:32;25.20;;;3.80;;
9188;SDS011;34313;50.780;6.084;2023-12-22T07:36:58;22.63;;;4.43;;
9188;SDS011;34313;50.780;6.084;2023-12-22T07:39:23;15.93;;;3.30;;
9188;SDS011;34313;50.780;6.084;2023-12-22T07:41:48;25.30;;;4.30;;
9188;SDS011;34313;50.780;6.084;2023-12-22T07:44:13;17.03;;;3.63;;
9188;SDS011;34313;50.780;6.084;2023-12-22T07:46:39;23.77;;;3.93;;
9188;SDS011;34313;50.780;6.084;2023-12-22T07:49:04;22.33;;;4.47;;
9188;SDS011;34313;50.780;6.084;2023-12-22T07:51:30;27.23;;;3.37;;
9188;SDS011;34313;50.780;6.084;2023-12-22T07:53:56;23.67;;;3.70;;
9188;SDS011;34313;50.780;6.084;2023-12-22T07:56:21;28.70;;;4.50;;
9188;SDS011;34313;50.780;6.084;2023-12-22T07:58:47;22.27;;;4.30;;
9188;SDS011;34313;50.780;6.084;2023-12-22T08:01:13;28.33;;;5.23;;
9188;SDS011;34313;50.780;6.084;2023-12-22T08:03:40;25.93;;;4.40;;
9188;SDS011;34313;50.780;6.084;2023-12-22T08:06:06;21.07;;;3.50;;
9188;SDS011;34313;50.780;6.084;2023-12-22T08:08:31;21.73;;;4.00;;
9188;SDS011;34313;50.780;6.084;2023-12-22T08:10:58;22.37;;;3.63;;
9188;SDS011;34313;50.780;6.084;2023-12-22T08:13:24;18.90;;;4.30;;
9188;SDS011;34313;50.780;6.084;2023-12-22T08:15:49;26.77;;;4.47;;
9188;SDS011;34313;50.780;6.084;2023-12-22T08:18:15;21.43;;;3.07;;
9188;SDS011;34313;50.780;6.084;2023-12-22T08:20:40;20.93;;;4.10;;
9188;SDS011;34313;50.780;6.084;2023-12-22T08:23:05;19.33;;;4.43;;
9188;SDS011;34313;50.780;6.084;2023-12-22T08:25:31;21.87;;;3.80;;
9188;SDS011;34313;50.780;6.084;2023-12-22T08:27:56;22.80;;;4.17;;
9188;SDS011;34313;50.780;6.084;2023-12-22T08:30:22;19.13;;;4.00;;
9188;SDS011;34313;50.780;6.084;2023-12-22T08:32:49;17.07;;;3.50;;
9188;SDS011;34313;50.780;6.084;2023-12-22T08:35:15;24.60;;;4.10;;
9188;SDS011;34313;50.780;6.084;2023-12-22T08:37:41;19.80;;;3.73;;
9188;SDS011;34313;50.780;6.084;2023-12-22T08:40:07;15.03;;;3.10;;
9188;SDS011;34313;50.780;6.084;2023-12-22T08:42:32;17.63;;;3.43;;
9188;SDS011;34313;50.780;6.084;2023-12-22T08:44:58;19.87;;;2.93;;
9188;SDS011;34313;50.780;6.084;2023-12-22T08:47:23;15.87;;;3.80;;
9188;SDS011;34313;50.780;6.084;2023-12-22T08:49:49;12.30;;;2.53;;
9188;SDS011;34313;50.780;6.084;2023-12-22T08:52:14;15.10;;;3.07;;
9188;SDS011;34313;50.780;6.084;2023-12-22T08:54:39;16.93;;;3.40;;
9188;SDS011;34313;50.780;6.084;2023-12-22T08:57:05;16.60;;;2.93;;
9188;SDS011;34313;50.780;6.084;2023-12-22T08:59:30;13.43;;;2.73;;
9188;SDS011;34313;50.780;6.084;2023-12-22T09:01:55;14.00;;;2.73;;
9188;SDS011;34313;50.780;6.084;2023-12-22T09:04:21;14.37;;;3.33;;
9188;SDS011;34313;50.780;6.084;2023-12-22T09:06:48;12.80;;;2.90;;
9188;SDS011;34313;50.780;6.084;2023-12-22T09:09:14;17.07;;;3.00;;
9188;SDS011;34313;50.780;6.084;2023-12-22T09:11:39;11.70;;;3.00;;
9188;SDS011;34313;50.780;6.084;2023-12-22T09:14:05;16.73;;;3.17;;
9188;SDS011;34313;50.780;6.084;2023-12-22T09:16:34;8.00;;;2.53;;
9188;SDS011;34313;50.780;6.084;2023-12-22T09:19:00;10.77;;;2.73;;
9188;SDS011;34313;50.780;6.084;2023-12-22T09:21:26;6.83;;;2.10;;
9188;SDS011;34313;50.780;6.084;2023-12-22T09:23:51;5.97;;;2.47;;
9188;SDS011;34313;50.780;6.084;2023-12-22T09:26:16;12.20;;;2.60;;
9188;SDS011;34313;50.780;6.084;2023-12-22T09:28:42;7.90;;;2.27;;
9188;SDS011;34313;50.780;6.084;2023-12-22T09:31:08;13.40;;;2.90;;
9188;SDS011;34313;50.780;6.084;2023-12-22T09:33:34;13.50;;;2.80;;
9188;SDS011;34313;50.780;6.084;2023-12-22T09:35:59;10.30;;;2.80;;
9188;SDS011;34313;50.780;6.084;2023-12-22T09:38:25;11.83;;;2.97;;
9188;SDS011;34313;50.780;6.084;2023-12-22T09:40:50;11.00;;;2.10;;
9188;SDS011;34313;50.780;6.084;2023-12-22T09:43:16;12.13;;;2.60;;
9188;SDS011;34313;50.780;6.084;2023-12-22T09:45:45;8.37;;;1.87;;
9188;SDS011;34313;50.780;6.084;2023-12-22T09:48:12;10.50;;;2.50;;
9188;SDS011;34313;50.780;6.084;2023-12-22T09:50:45;9.33;;;2.50;;
9188;SDS011;34313;50.780;6.084;2023-12-22T09:53:12;7.23;;;2.17;;
9188;SDS011;34313;50.780;6.084;2023-12-22T09:55:38;11.13;;;2.30;;
9188;SDS011;34313;50.780;6.084;2023-12-22T09:58:06;6.17;;;2.27;;
9188;SDS011;34313;50.780;6.084;2023-12-22T10:00:33;6.27;;;1.70;;
9188;SDS011;34313;50.780;6.084;2023-12-22T10:03:02;6.03;;;1.93;;
9188;SDS011;34313;50.780;6.084;2023-12-22T10:05:30;4.03;;;1.67;;
9188;SDS011;34313;50.780;6.084;2023-12-22T10:07:56;4.30;;;1.60;;
9188;SDS011;34313;50.780;6.084;2023-12-22T10:10:22;2.13;;;1.60;;
9188;SDS011;34313;50.780;6.084;2023-12-22T10:12:48;4.07;;;2.07;;
9188;SDS011;34313;50.780;6.084;2023-12-22T10:15:16;3.37;;;1.53;;
9188;SDS011;34313;50.780;6.084;2023-12-22T10:17:44;6.97;;;2.03;;
9188;SDS011;34313;50.780;6.084;2023-12-22T10:20:09;4.50;;;2.60;;
9188;SDS011;34313;50.780;6.084;2023-12-22T10:22:35;2.37;;;1.80;;
9188;SDS011;34313;50.780;6.084;2023-12-22T10:25:00;8.43;;;2.10;;
9188;SDS011;34313;50.780;6.084;2023-12-22T10:27:26;4.87;;;2.63;;
9188;SDS011;34313;50.780;6.084;2023-12-22T10:29:55;3.03;;;1.87;;
9188;SDS011;34313;50.780;6.084;2023-12-22T10:32:21;4.90;;;2.50;;
9188;SDS011;34313;50.780;6.084;2023-12-22T10:34:47;4.00;;;2.23;;
9188;SDS011;34313;50.780;6.084;2023-12-22T10:37:12;5.53;;;2.27;;
9188;SDS011;34313;50.780;6.084;2023-12-22T10:39:38;3.80;;;2.10;;
9188;SDS011;34313;50.780;6.084;2023-12-22T10:42:04;5.10;;;2.53;;
9188;SDS011;34313;50.780;6.084;2023-12-22T10:44:29;2.47;;;1.90;;
9188;SDS011;34313;50.780;6.084;2023-12-22T10:46:55;2.77;;;2.13;;
9188;SDS011;34313;50.780;6.084;2023-12-22T10:49:22;4.00;;;2.30;;
9188;SDS011;34313;50.780;6.084;2023-12-22T10:51:48;3.50;;;2.10;;
9188;SDS011;34313;50.780;6.084;2023-12-22T10:54:14;3.17;;;2.27;;
9188;SDS011;34313;50.780;6.084;2023-12-22T10:56:41;4.27;;;2.40;;
9188;SDS011;34313;50.780;6.084;2023-12-22T10:59:07;3.97;;;2.40;;
9188;SDS011;34313;50.780;6.084;2023-12-22T11:01:33;3.30;;;2.30;;
9188;SDS011;34313;50.780;6.084;2023-12-22T11:04:07;3.60;;;2.20;;
9188;SDS011;34313;50.780;6.084;2023-12-22T11:06:34;5.30;;;1.80;;
9188;SDS011;34313;50.780;6.084;2023-12-22T11:09:03;4.93;;;2.33;;
9188;SDS011;34313;50.780;6.084;2023-12-22T11:11:38;3.57;;;1.90;;
9188;SDS011;34313;50.780;6.084;2023-12-22T11:14:05;3.53;;;1.73;;
9188;SDS011;34313;50.780;6.084;2023-12-22T11:16:31;2.53;;;1.50;;
9188;SDS011;34313;50.780;6.084;2023-12-22T11:19:01;3.17;;;1.97;;
9188;SDS011;34313;50.780;6.084;2023-12-22T11:21:29;3.90;;;1.63;;
9188;SDS011;34313;50.780;6.084;2023-12-22T11:23:55;1.70;;;1.43;;
9188;SDS011;34313;50.780;6.084;2023-12-22T11:26:23;2.73;;;1.30;;
9188;SDS011;34313;50.780;6.084;2023-12-22T11:28:49;1.80;;;1.30;;
9188;SDS011;34313;50.780;6.084;2023-12-22T11:31:19;2.60;;;1.20;;
9188;SDS011;34313;50.780;6.084;2023-12-22T11:36:12;3.23;;;1.70;;
9188;SDS011;34313;50.780;6.084;2023-12-22T11:38:39;3.97;;;1.53;;
9188;SDS011;34313;50.780;6.084;2023-12-22T11:41:05;3.73;;;1.80;;
9188;SDS011;34313;50.780;6.084;2023-12-22T11:43:35;3.80;;;2.13;;
9188;SDS011;34313;50.780;6.084;2023-12-22T11:46:03;6.80;;;1.60;;
9188;SDS011;34313;50.780;6.084;2023-12-22T11:48:29;1.90;;;1.67;;
9188;SDS011;34313;50.780;6.084;2023-12-22T11:50:54;2.00;;;1.63;;
9188;SDS011;34313;50.780;6.084;2023-12-22T11:53:23;6.30;;;1.60;;
9188;SDS011;34313;50.780;6.084;2023-12-22T11:55:59;4.03;;;1.70;;
9188;SDS011;34313;50.780;6.084;2023-12-22T11:58:43;5.33;;;1.70;;
9188;SDS011;34313;50.780;6.084;2023-12-22T12:01:20;3.00;;;1.30;;
9188;SDS011;34313;50.780;6.084;2023-12-22T12:03:55;5.83;;;1.63;;
9188;SDS011;34313;50.780;6.084;2023-12-22T12:08:54;2.90;;;1.60;;
9188;SDS011;34313;50.780;6.084;2023-12-22T12:11:21;4.30;;;1.60;;
9188;SDS011;34313;50.780;6.084;2023-12-22T12:13:47;3.40;;;1.47;;
9188;SDS011;34313;50.780;6.084;2023-12-22T12:16:13;3.97;;;1.90;;
9188;SDS011;34313;50.780;6.084;2023-12-22T12:18:40;2.60;;;1.50;;
9188;SDS011;34313;50.780;6.084;2023-12-22T12:21:10;6.93;;;1.93;;
9188;SDS011;34313;50.780;6.084;2023-12-22T12:23:36;3.50;;;1.57;;
9188;SDS011;34313;50.780;6.084;2023-12-22T12:26:02;2.07;;;1.60;;
9188;SDS011;34313;50.780;6.084;2023-12-22T12:28:29;4.33;;;1.70;;
9188;SDS011;34313;50.780;6.084;2023-12-22T12:31:05;3.80;;;1.90;;
9188;SDS011;34313;50.780;6.084;2023-12-22T12:33:31;4.60;;;1.60;;
9188;SDS011;34313;50.780;6.084;2023-12-22T12:35:57;6.03;;;1.70;;
9188;SDS011;34313;50.780;6.084;2023-12-22T12:38:28;4.97;;;1.60;;
9188;SDS011;34313;50.780;6.084;2023-12-22T12:41:03;4.00;;;1.40;;
9188;SDS011;34313;50.780;6.084;2023-12-22T12:43:30;2.30;;;1.03;;
9188;SDS011;34313;50.780;6.084;2023-12-22T12:46:02;5.77;;;1.87;;
9188;SDS011;34313;50.780;6.084;2023-12-22T12:48:28;2.90;;;1.90;;
9188;SDS011;34313;50.780;6.084;2023-12-22T12:50:54;5.80;;;1.80;;
9188;SDS011;34313;50.780;6.084;2023-12-22T12:53:19;7.50;;;1.43;;
9188;SDS011;34313;50.780;6.084;2023-12-22T12:55:45;3.17;;;1.27;;
9188;SDS011;34313;50.780;6.084;2023-12-22T12:58:10;1.30;;;1.10;;
9188;SDS011;34313;50.780;6.084;2023-12-22T13:00:36;6.80;;;1.70;;
9188;SDS011;34313;50.780;6.084;2023-12-22T13:03:05;4.33;;;1.40;;
9188;SDS011;34313;50.780;6.084;2023-12-22T13:05:31;4.33;;;1.50;;
9188;SDS011;34313;50.780;6.084;2023-12-22T13:08:10;2.90;;;1.43;;
9188;SDS011;34313;50.780;6.084;2023-12-22T13:10:36;2.50;;;1.70;;
9188;SDS011;34313;50.780;6.084;2023-12-22T13:13:02;5.40;;;1.53;;
9188;SDS011;34313;50.780;6.084;2023-12-22T13:15:28;2.50;;;1.40;;
9188;SDS011;34313;50.780;6.084;2023-12-22T13:17:53;3.47;;;1.20;;
9188;SDS011;34313;50.780;6.084;2023-12-22T13:20:20;3.63;;;1.43;;
9188;SDS011;34313;50.780;6.084;2023-12-22T13:22:45;4.30;;;1.50;;
9188;SDS011;34313;50.780;6.084;2023-12-22T13:25:11;3.93;;;1.80;;
9188;SDS011;34313;50.780;6.084;2023-12-22T13:27:49;5.13;;;1.43;;
9188;SDS011;34313;50.780;6.084;2023-12-22T13:30:37;7.00;;;1.63;;
9188;SDS011;34313;50.780;6.084;2023-12-22T13:33:06;2.00;;;1.53;;
9188;SDS011;34313;50.780;6.084;2023-12-22T13:35:32;2.20;;;1.50;;
9188;SDS011;34313;50.780;6.084;2023-12-22T13:38:00;3.73;;;1.40;;
9188;SDS011;34313;50.780;6.084;2023-12-22T13:40:25;5.27;;;1.40;;
9188;SDS011;34313;50.780;6.084;2023-12-22T13:42:55;3.73;;;1.30;;
9188;SDS011;34313;50.780;6.084;2023-12-22T13:45:22;5.70;;;1.87;;
9188;SDS011;34313;50.780;6.084;2023-12-22T13:47:48;4.37;;;2.07;;
9188;SDS011;34313;50.780;6.084;2023-12-22T13:50:16;3.30;;;1.80;;
9188;SDS011;34313;50.780;6.084;2023-12-22T13:52:43;2.97;;;1.90;;
9188;SDS011;34313;50.780;6.084;2023-12-22T13:55:13;3.47;;;1.50;;
9188;SDS011;34313;50.780;6.084;2023-12-22T13:57:39;5.33;;;1.87;;
9188;SDS011;34313;50.780;6.084;2023-12-22T14:02:46;5.20;;;1.27;;
9188;SDS011;34313;50.780;6.084;2023-12-22T14:05:14;8.67;;;1.60;;
9188;SDS011;34313;50.780;6.084;2023-12-22T14:07:39;3.00;;;1.07;;
9188;SDS011;34313;50.780;6.084;2023-12-22T14:10:05;6.33;;;1.63;;
9188;SDS011;34313;50.780;6.084;2023-12-22T14:12:31;6.70;;;1.50;;
9188;SDS011;34313;50.780;6.084;2023-12-22T14:14:56;2.03;;;1.50;;
9188;SDS011;34313;50.780;6.084;2023-12-22T14:17:21;2.43;;;1.53;;
9188;SDS011;34313;50.780;6.084;2023-12-22T14:19:47;3.60;;;1.53;;
9188;SDS011;34313;50.780;6.084;2023-12-22T14:22:14;3.10;;;1.30;;
9188;SDS011;34313;50.780;6.084;2023-12-22T14:24:40;2.70;;;1.30;;
9188;SDS011;34313;50.780;6.084;2023-12-22T14:27:05;4.10;;;1.60;;
9188;SDS011;34313;50.780;6.084;2023-12-22T14:29:30;6.93;;;1.90;;
9188;SDS011;34313;50.780;6.084;2023-12-22T14:31:56;2.90;;;1.60;;
9188;SDS011;34313;50.780;6.084;2023-12-22T14:34:21;5.70;;;1.57;;
9188;SDS011;34313;50.780;6.084;2023-12-22T14:36:47;11.57;;;2.17;;
9188;SDS011;34313;50.780;6.084;2023-12-22T14:39:12;5.90;;;2.03;;
9188;SDS011;34313;50.780;6.084;2023-12-22T14:41:42;4.40;;;1.80;;
9188;SDS011;34313;50.780;6.084;2023-12-22T14:44:08;2.27;;;2.00;;
9188;SDS011;34313;50.780;6.084;2023-12-22T14:46:36;7.80;;;2.50;;
9188;SDS011;34313;50.780;6.084;2023-12-22T14:49:03;3.53;;;2.27;;
9188;SDS011;34313;50.780;6.084;2023-12-22T14:51:28;5.30;;;2.33;;
9188;SDS011;34313;50.780;6.084;2023-12-22T14:53:53;4.87;;;2.40;;
9188;SDS011;34313;50.780;6.084;2023-12-22T14:56:18;8.17;;;2.90;;
9188;SDS011;34313;50.780;6.084;2023-12-22T14:58:44;3.50;;;2.40;;
9188;SDS011;34313;50.780;6.084;2023-12-22T15:01:12;8.67;;;3.03;;